createdAt,value
2023-01-28T00:01:32.952Z,34.90
2023-01-28T00:06:34.460Z,34.90
2023-01-28T00:11:35.905Z,34.90
2023-01-28T00:16:37.303Z,34.90
2023-01-28T00:21:38.709Z,34.80
2023-01-28T00:26:40.113Z,34.90
2023-01-28T00:31:41.598Z,34.80
2023-01-28T00:36:43.043Z,34.90
2023-01-28T00:41:44.455Z,34.80
2023-01-28T00:46:45.871Z,34.90
2023-01-28T00:51:47.287Z,34.80
2023-01-28T00:56:48.713Z,34.80
2023-01-28T01:01:50.180Z,34.80
2023-01-28T01:06:51.593Z,34.90
2023-01-28T01:11:52.995Z,34.80
2023-01-28T01:16:54.410Z,34.80
2023-01-28T01:21:55.822Z,34.80
2023-01-28T01:26:57.219Z,34.90
2023-01-28T01:31:58.656Z,34.90
2023-01-28T01:37:00.084Z,34.90
2023-01-28T01:42:01.493Z,34.90
2023-01-28T01:47:02.892Z,34.80
2023-01-28T01:52:04.284Z,34.90
2023-01-28T01:57:06.479Z,34.80
2023-01-28T02:02:08.094Z,34.80
2023-01-28T02:07:09.544Z,34.80
2023-01-28T02:12:11.002Z,34.80
2023-01-28T02:17:12.402Z,34.90
2023-01-28T02:22:13.863Z,34.90
2023-01-28T02:27:15.273Z,34.80
2023-01-28T02:32:16.696Z,34.90
2023-01-28T02:37:18.091Z,34.80
2023-01-28T02:42:19.479Z,34.80
2023-01-28T02:47:20.887Z,34.90
2023-01-28T02:52:22.290Z,34.80
2023-01-28T02:57:23.693Z,34.80
2023-01-28T03:02:25.141Z,34.80
2023-01-28T03:07:26.575Z,34.80
2023-01-28T03:12:27.982Z,34.80
2023-01-28T03:17:29.400Z,34.80
2023-01-28T03:22:30.814Z,34.80
2023-01-28T03:27:32.241Z,34.80
2023-01-28T03:32:33.660Z,34.80
2023-01-28T03:37:35.540Z,34.80
2023-01-28T03:42:37.005Z,34.80
2023-01-28T03:47:38.404Z,34.80
2023-01-28T03:52:39.820Z,34.80
2023-01-28T03:57:41.216Z,34.80
2023-01-28T04:02:42.752Z,35.50
2023-01-28T04:07:44.230Z,34.80
2023-01-28T04:12:45.653Z,34.80
2023-01-28T04:17:47.071Z,34.80
2023-01-28T04:22:48.475Z,34.80
2023-01-28T04:27:49.913Z,34.80
2023-01-28T04:32:51.319Z,34.80
2023-01-28T04:37:52.722Z,34.80
2023-01-28T04:42:54.164Z,34.80
2023-01-28T04:47:55.579Z,34.80
2023-01-28T04:52:56.975Z,34.70
2023-01-28T04:57:58.422Z,34.70
2023-01-28T05:02:59.952Z,34.70
2023-01-28T05:08:01.380Z,34.70
2023-01-28T05:13:02.855Z,34.70
2023-01-28T05:18:04.273Z,34.70
2023-01-28T05:23:05.676Z,34.70
2023-01-28T05:28:07.076Z,34.70
2023-01-28T05:33:08.490Z,34.80
2023-01-28T05:38:09.891Z,34.80
2023-01-28T05:43:11.309Z,34.70
2023-01-28T05:48:12.747Z,34.80
2023-01-28T05:53:14.213Z,34.70
2023-01-28T05:58:15.699Z,34.70
2023-01-28T06:03:17.164Z,34.70
2023-01-28T06:08:18.649Z,34.60
2023-01-28T06:13:20.138Z,34.70
2023-01-28T06:18:21.535Z,34.60
2023-01-28T06:23:22.955Z,34.60
2023-01-28T06:28:24.380Z,34.60
2023-01-28T06:33:25.816Z,34.60
2023-01-28T06:38:27.236Z,34.70
2023-01-28T06:43:28.641Z,34.70
2023-01-28T06:48:30.127Z,34.60
2023-01-28T06:53:31.560Z,34.70
2023-01-28T06:58:33.033Z,34.70
2023-01-28T07:03:34.451Z,34.60
2023-01-28T07:08:35.859Z,34.60
2023-01-28T07:13:37.270Z,34.60
2023-01-28T07:18:38.667Z,34.70
2023-01-28T07:23:40.076Z,34.60
2023-01-28T07:28:41.491Z,34.60
2023-01-28T07:33:42.994Z,34.70
2023-01-28T07:38:44.513Z,34.60
2023-01-28T07:43:45.919Z,34.60
2023-01-28T07:48:47.352Z,34.60
2023-01-28T07:53:48.805Z,34.70
2023-01-28T07:58:50.231Z,34.60
2023-01-28T08:03:51.638Z,34.50
2023-01-28T08:08:53.050Z,34.50
2023-01-28T08:13:54.569Z,34.60
2023-01-28T08:18:55.980Z,34.60
2023-01-28T08:23:57.433Z,34.50
2023-01-28T08:28:59.223Z,34.50
2023-01-28T08:34:02.231Z,34.50
2023-01-28T08:39:03.818Z,34.60
2023-01-28T08:44:05.263Z,34.50
2023-01-28T08:49:06.698Z,34.60
2023-01-28T08:54:08.272Z,35.20
2023-01-28T08:59:09.704Z,34.60
2023-01-28T09:04:11.096Z,34.60
2023-01-28T09:09:12.511Z,34.50
2023-01-28T09:14:13.912Z,34.60
2023-01-28T09:19:15.877Z,34.50
2023-01-28T09:24:17.514Z,34.60
2023-01-28T09:29:18.971Z,34.50
2023-01-28T09:34:20.416Z,34.50
2023-01-28T09:39:21.838Z,34.50
2023-01-28T09:44:23.367Z,34.50
2023-01-28T09:49:24.858Z,34.50
2023-01-28T09:54:26.436Z,34.50
2023-01-28T09:59:27.960Z,34.50
2023-01-28T10:04:29.383Z,34.50
2023-01-28T10:09:30.775Z,34.50
2023-01-28T10:14:32.177Z,34.50
2023-01-28T10:19:33.581Z,34.50
2023-01-28T10:24:35.054Z,34.50
2023-01-28T10:29:36.607Z,34.50
2023-01-28T10:34:38.020Z,34.50
2023-01-28T10:39:39.423Z,34.50
2023-01-28T10:44:40.961Z,34.40
2023-01-28T10:49:42.411Z,34.50
2023-01-28T10:54:43.924Z,34.50
2023-01-28T10:59:45.341Z,34.50
2023-01-28T11:04:46.751Z,34.40
2023-01-28T11:09:48.153Z,34.50
2023-01-28T11:14:49.573Z,34.50
2023-01-28T11:19:51.010Z,34.50
2023-01-28T11:24:52.416Z,34.40
2023-01-28T11:29:53.838Z,34.40
2023-01-28T11:34:55.241Z,34.50
2023-01-28T11:39:56.644Z,34.50
2023-01-28T11:44:58.053Z,34.40
2023-01-28T11:49:59.531Z,34.50
2023-01-28T11:55:01.174Z,34.50
2023-01-28T12:00:02.804Z,34.50
2023-01-28T12:05:04.385Z,34.50
2023-01-28T12:10:05.856Z,34.40
2023-01-28T12:15:07.301Z,34.40
2023-01-28T12:20:08.723Z,34.40
2023-01-28T12:25:10.139Z,34.40
2023-01-28T12:30:11.552Z,34.40
2023-01-28T12:35:12.972Z,34.30
2023-01-28T12:40:14.853Z,34.30
2023-01-28T12:45:16.554Z,34.40
2023-01-28T12:50:18.275Z,34.30
2023-01-28T12:55:19.866Z,34.30
2023-01-28T13:00:21.268Z,34.40
2023-01-28T13:05:22.678Z,34.40
2023-01-28T13:10:24.092Z,34.30
2023-01-28T13:15:25.537Z,34.40
2023-01-28T13:20:26.937Z,34.30
2023-01-28T13:25:28.341Z,34.40
2023-01-28T13:30:29.769Z,34.30
2023-01-28T13:35:31.172Z,34.30
2023-01-28T13:40:32.589Z,34.20
2023-01-28T13:45:34.052Z,34.30
2023-01-28T13:50:35.489Z,34.20
2023-01-28T13:55:44.003Z,34.20
2023-01-28T14:00:45.887Z,34.30
2023-01-28T14:05:47.295Z,34.40
2023-01-28T14:10:48.715Z,34.20
2023-01-28T14:15:50.169Z,34.20
2023-01-28T14:20:51.603Z,34.20
2023-01-28T14:25:53.006Z,34.20
2023-01-28T14:30:54.600Z,34.20
2023-01-28T14:35:56.088Z,34.20
2023-01-28T14:40:57.514Z,34.20
2023-01-28T14:45:58.911Z,34.20
2023-01-28T14:51:00.305Z,34.20
2023-01-28T14:56:01.964Z,34.20
2023-01-28T15:01:03.404Z,34.20
2023-01-28T15:06:04.816Z,34.20
2023-01-28T15:11:06.260Z,34.20
2023-01-28T15:16:07.758Z,34.20
2023-01-28T15:21:09.186Z,34.30
2023-01-28T15:26:10.589Z,34.20
2023-01-28T15:31:12.089Z,34.20
2023-01-28T15:36:13.554Z,34.20
2023-01-28T15:41:14.964Z,34.20
2023-01-28T15:46:16.361Z,34.20
2023-01-28T15:51:17.787Z,34.20
2023-01-28T15:56:19.191Z,34.20
2023-01-28T16:01:20.650Z,34.20
2023-01-28T16:06:22.099Z,34.20
2023-01-28T16:11:23.520Z,34.20
2023-01-28T16:16:24.941Z,34.20
2023-01-28T16:21:26.381Z,34.20
2023-01-28T16:26:27.808Z,34.20
2023-01-28T16:31:29.367Z,34.10
2023-01-28T16:36:30.879Z,34.10
2023-01-28T16:41:32.304Z,34.20
2023-01-28T16:46:33.823Z,34.20
2023-01-28T16:51:35.276Z,34.10
2023-01-28T16:56:45.167Z,34.10
2023-01-28T17:01:46.856Z,34.10
2023-01-28T17:06:48.266Z,34.10
2023-01-28T17:11:49.668Z,34.00
2023-01-28T17:16:51.103Z,34.00
2023-01-28T17:21:52.512Z,34.00
2023-01-28T17:26:53.968Z,34.10
2023-01-28T17:31:55.407Z,34.10
2023-01-28T17:36:56.835Z,34.10
2023-01-28T17:41:58.232Z,34.10
2023-01-28T17:46:59.650Z,34.20
2023-01-28T17:52:01.172Z,34.10
2023-01-28T17:57:02.692Z,34.20
2023-01-28T18:02:04.130Z,34.10
2023-01-28T18:07:05.542Z,34.10
2023-01-28T18:12:06.975Z,34.00
2023-01-28T18:17:08.453Z,34.00
2023-01-28T18:22:09.880Z,34.00
2023-01-28T18:27:11.305Z,33.90
2023-01-28T18:32:12.725Z,33.90
2023-01-28T18:37:14.141Z,33.80
2023-01-28T18:42:15.551Z,33.80
2023-01-28T18:47:16.948Z,33.80
2023-01-28T18:52:18.356Z,33.80
2023-01-28T18:57:19.936Z,33.80
2023-01-28T19:02:21.867Z,34.00
2023-01-28T19:07:23.311Z,33.90
2023-01-28T19:12:24.722Z,34.10
2023-01-28T19:17:26.131Z,34.10
2023-01-28T19:22:27.536Z,34.10
2023-01-28T19:27:28.948Z,34.10
2023-01-28T19:32:30.351Z,34.00
2023-01-28T19:37:31.764Z,34.00
2023-01-28T19:42:33.169Z,34.00
2023-01-28T19:47:34.588Z,33.90
2023-01-28T19:52:35.984Z,33.80
2023-01-28T19:57:37.412Z,34.30
2023-01-28T20:02:38.831Z,33.80
2023-01-28T20:07:40.296Z,33.80
2023-01-28T20:12:41.703Z,34.30
2023-01-28T20:17:43.180Z,33.70
2023-01-28T20:22:44.623Z,33.70
2023-01-28T20:27:46.029Z,33.80
2023-01-28T20:32:47.440Z,33.80
2023-01-28T20:37:48.856Z,33.80
2023-01-28T20:42:50.273Z,33.90
2023-01-28T20:47:51.671Z,33.90
2023-01-28T20:52:53.299Z,33.80
2023-01-28T20:57:55.300Z,33.80
2023-01-28T21:02:56.907Z,33.90
2023-01-28T21:07:58.352Z,33.80
2023-01-28T21:12:59.792Z,33.80
2023-01-28T21:18:01.184Z,33.70
2023-01-28T21:23:02.602Z,33.70
2023-01-28T21:28:04.015Z,33.70
2023-01-28T21:33:05.431Z,33.70
2023-01-28T21:38:06.854Z,33.70
2023-01-28T21:43:08.269Z,33.70
2023-01-28T21:48:09.676Z,33.60
2023-01-28T21:53:11.080Z,33.70
2023-01-28T21:58:12.526Z,33.60
2023-01-28T22:03:13.925Z,33.60
2023-01-28T22:08:15.325Z,33.60
2023-01-28T22:13:16.737Z,34.20
2023-01-28T22:18:18.146Z,33.60
2023-01-28T22:23:19.544Z,33.60
2023-01-28T22:28:22.054Z,33.60
2023-01-28T22:33:23.475Z,33.60
2023-01-28T22:38:24.877Z,33.60
2023-01-28T22:43:26.285Z,33.60
2023-01-28T22:48:27.705Z,33.60
2023-01-28T22:53:29.103Z,33.60
2023-01-28T22:58:31.690Z,33.60
2023-01-28T23:03:33.880Z,33.60
2023-01-28T23:08:35.283Z,33.60
2023-01-28T23:13:36.751Z,33.60
2023-01-28T23:18:38.210Z,33.60
2023-01-28T23:23:39.828Z,33.60
2023-01-28T23:28:41.242Z,33.60
2023-01-28T23:33:42.676Z,33.60
2023-01-28T23:38:44.097Z,33.50
2023-01-28T23:43:45.505Z,33.50
2023-01-28T23:48:46.951Z,33.50
2023-01-28T23:53:48.360Z,33.50
2023-01-28T23:58:49.822Z,33.50
